Time;durP1;ratioP1;P1;durP2;ratioP2;P2;SDS_P1;SDS_P2;PMS_P1;PMS_P2;Temp;Humidity;BMP_temperature;BMP_pressure;BME280_temperature;BME280_humidity;BME280_pressure;Samples;Min_cycle;Max_cycle;Signal;HPM_P1;HPM_P2
2021/08/02 00:00:16;;;;;;;16.30;4.80;;;;;;;14.54;85.62;99495.11;125588;1093;22803;-63
2021/08/02 00:03:14;;;;;;;16.05;4.70;;;;;;;14.52;85.27;99500.48;125757;1093;22808;-62
2021/08/02 00:05:47;;;;;;;17.00;5.70;;;;;;;14.50;85.33;99491.83;125762;1093;22797;-63
2021/08/02 00:08:22;;;;;;;15.15;4.60;;;;;;;14.50;85.18;99498.19;125880;1092;22921;-63
2021/08/02 00:10:52;;;;;;;15.75;5.25;;;;;;;14.46;85.24;99497.71;125743;1093;22800;-63
2021/08/02 00:13:29;;;;;;;15.80;5.55;;;;;;;14.43;85.64;99495.20;125888;1093;22831;-63
2021/08/02 00:16:00;;;;;;;19.95;5.25;;;;;;;14.40;85.69;99494.19;125894;1092;22788;-63
2021/08/02 00:18:31;;;;;;;15.90;4.57;;;;;;;14.40;85.53;99504.68;125830;1091;22804;-63
2021/08/02 00:21:05;;;;;;;16.20;4.57;;;;;;;14.36;85.43;99499.33;125914;1093;23763;-63
2021/08/02 00:23:34;;;;;;;15.70;6.15;;;;;;;14.35;85.23;99503.44;125814;1093;22780;-62
2021/08/02 00:26:04;;;;;;;16.20;5.67;;;;;;;14.35;84.99;99499.86;125670;1093;22761;-62
2021/08/02 00:28:34;;;;;;;16.23;4.10;;;;;;;14.33;85.26;99496.81;125717;1093;26499;-62
2021/08/02 00:31:03;;;;;;;21.70;5.17;;;;;;;14.30;85.28;99493.00;125681;1093;22834;-62
2021/08/02 00:33:33;;;;;;;16.93;5.75;;;;;;;14.30;85.36;99495.04;125779;1093;22835;-62
2021/08/02 00:36:09;;;;;;;13.77;4.57;;;;;;;14.29;85.07;99499.14;125804;1093;26245;-62
2021/08/02 00:38:52;;;;;;;17.40;5.00;;;;;;;14.27;85.51;99494.03;125847;1093;24906;-63
2021/08/02 00:41:42;;;;;;;18.10;5.20;;;;;;;14.27;85.20;99499.64;125627;1093;22847;-63
2021/08/02 00:44:45;;;;;;;23.00;5.73;;;;;;;14.27;85.54;99501.69;125682;1092;27167;-62
2021/08/02 00:47:19;;;;;;;14.45;5.30;;;;;;;14.25;85.21;99499.41;125078;1096;22890;-62
2021/08/02 00:49:51;;;;;;;16.20;4.85;;;;;;;14.25;85.40;99498.64;125127;1096;23206;-62
2021/08/02 00:52:22;;;;;;;18.40;4.80;;;;;;;14.24;85.36;99499.91;125284;1096;22798;-63
2021/08/02 00:54:54;;;;;;;15.00;4.30;;;;;;;14.24;85.09;99500.67;125504;1096;22780;-69
2021/08/02 00:57:27;;;;;;;16.65;4.50;;;;;;;14.26;84.94;99502.95;125425;1096;23117;-63
2021/08/02 00:59:57;;;;;;;18.05;3.90;;;;;;;14.25;85.33;99510.64;125479;1096;22772;-63
2021/08/02 01:02:27;;;;;;;18.45;4.45;;;;;;;14.24;85.00;99509.10;125098;1097;22915;-63
2021/08/02 01:04:58;;;;;;;18.00;4.53;;;;;;;14.23;85.36;99506.83;125534;1096;22774;-63
2021/08/02 01:07:28;;;;;;;14.10;4.40;;;;;;;14.23;85.01;99501.20;125969;1096;22858;-63
2021/08/02 01:09:59;;;;;;;19.75;4.60;;;;;;;14.22;84.96;99506.05;125219;1095;27418;-63
2021/08/02 01:12:29;;;;;;;;;;;;;;;14.20;85.23;99503.00;125492;1096;22917;-63
2021/08/02 01:14:59;;;;;;;16.43;3.67;;;;;;;14.18;84.86;99499.19;125492;1096;24178;-63
2021/08/02 01:17:29;;;;;;;13.50;4.50;;;;;;;14.17;84.89;99498.45;125763;1096;22941;-63
2021/08/02 01:20:00;;;;;;;12.00;3.70;;;;;;;14.16;84.94;99504.56;125418;1096;22914;-63
2021/08/02 01:22:29;;;;;;;;;;;;;;;14.15;85.01;99503.06;125455;1096;22896;-63
2021/08/02 01:25:21;;;;;;;13.85;4.15;;;;;;;14.12;84.94;99507.66;125609;1093;21594;-74
2021/08/02 01:28:31;;;;;;;13.55;4.30;;;;;;;14.14;85.22;99512.75;125791;1093;22787;-63
2021/08/02 01:31:02;;;;;;;14.10;3.90;;;;;;;14.11;85.08;99511.73;125760;1093;22819;-61
2021/08/02 01:33:33;;;;;;;17.55;4.50;;;;;;;14.10;85.23;99518.65;125775;1093;22848;-61
2021/08/02 01:36:05;;;;;;;13.40;4.00;;;;;;;14.09;85.39;99525.53;126379;1093;103238;-77
2021/08/02 01:38:34;;;;;;;14.80;3.65;;;;;;;14.08;85.12;99515.59;126480;1092;22821;-77
2021/08/02 01:41:05;;;;;;;19.38;4.43;;;;;;;14.09;85.27;99521.98;126463;1093;23267;-77
2021/08/02 01:43:33;;;;;;;15.58;4.08;;;;;;;14.07;85.15;99519.67;126645;1093;22858;-77
2021/08/02 01:46:08;;;;;;;12.40;3.75;;;;;;;14.06;85.18;99525.81;126553;1093;22770;-77
2021/08/02 01:48:57;;;;;;;14.00;4.05;;;;;;;14.05;85.39;99518.70;126804;1093;22817;-77
2021/08/02 01:51:30;;;;;;;9.70;3.07;;;;;;;14.06;85.29;99526.59;126564;1093;22834;-77
2021/08/02 01:54:08;;;;;;;18.77;4.27;;;;;;;14.05;85.17;99522.23;126573;1093;22906;-77
2021/08/02 01:56:48;;;;;;;16.77;4.13;;;;;;;14.05;85.15;99522.23;126692;1093;23203;-77
2021/08/02 01:59:22;;;;;;;16.20;4.73;;;;;;;14.06;85.07;99517.40;126478;1093;22780;-77
2021/08/02 02:01:56;;;;;;;12.23;4.00;;;;;;;14.05;85.65;99521.50;126457;1093;22842;-77
2021/08/02 02:04:31;;;;;;;15.30;4.73;;;;;;;14.05;85.49;99527.86;126450;1093;25909;-76
2021/08/02 02:07:03;;;;;;;17.45;3.45;;;;;;;14.06;85.21;99523.01;126371;1092;22835;-77
2021/08/02 02:09:35;;;;;;;12.80;3.95;;;;;;;14.04;85.21;99517.16;126377;1093;22839;-77
2021/08/02 02:12:06;;;;;;;16.27;4.87;;;;;;;14.04;85.19;99511.55;126369;1093;22787;-76
2021/08/02 02:14:37;;;;;;;12.60;3.30;;;;;;;14.05;85.13;99516.63;126358;1093;22763;-76
2021/08/02 02:17:09;;;;;;;14.20;4.35;;;;;;;14.04;85.53;99525.58;126373;1093;22828;-76
2021/08/02 02:19:40;;;;;;;15.80;4.40;;;;;;;14.03;85.02;99529.67;126442;1092;22848;-77
2021/08/02 02:22:10;;;;;;;11.47;3.47;;;;;;;14.02;85.25;99523.30;126291;1093;22851;-77
2021/08/02 02:24:40;;;;;;;15.55;3.15;;;;;;;14.02;85.27;99526.10;126410;1093;27840;-77
2021/08/02 02:27:11;;;;;;;10.90;3.30;;;;;;;14.02;85.27;99520.48;126434;1093;22803;-77
2021/08/02 02:29:41;;;;;;;11.45;3.80;;;;;;;14.01;85.35;99523.83;126410;1093;22794;-77
2021/08/02 02:32:09;;;;;;;;;;;;;;;13.99;85.39;99527.13;126439;1093;22767;-77
2021/08/02 02:34:39;;;;;;;12.85;3.65;;;;;;;13.97;85.71;99535.30;126433;1093;23151;-77
2021/08/02 02:37:08;;;;;;;18.37;4.03;;;;;;;13.98;85.40;99541.69;126621;1092;22780;-77
2021/08/02 02:39:38;;;;;;;11.95;3.70;;;;;;;13.98;85.32;99536.08;126386;1092;23907;-77
2021/08/02 02:42:08;;;;;;;16.00;4.25;;;;;;;13.97;85.62;99537.34;126651;1093;27731;-77
2021/08/02 02:44:38;;;;;;;14.15;3.55;;;;;;;13.97;85.50;99540.92;126507;1093;22764;-77
2021/08/02 02:47:07;;;;;;;17.80;4.30;;;;;;;13.98;85.59;99536.08;126635;1093;22810;-78
2021/08/02 02:49:37;;;;;;;11.73;4.10;;;;;;;13.99;85.60;99546.03;126567;1093;22884;-77
2021/08/02 02:52:08;;;;;;;11.25;3.88;;;;;;;14.01;86.23;99546.27;126502;1093;22835;-77
2021/08/02 02:54:38;;;;;;;11.43;4.23;;;;;;;14.02;85.76;99550.59;126468;1093;22951;-77
2021/08/02 02:57:07;;;;;;;12.70;4.50;;;;;;;14.05;85.72;99555.18;126476;1093;24571;-77
2021/08/02 02:59:35;;;;;;;14.55;4.45;;;;;;;14.08;86.18;99546.47;126391;1093;22835;-77
2021/08/02 03:02:05;;;;;;;14.07;4.30;;;;;;;14.11;86.18;99547.48;126412;1092;22775;-77
2021/08/02 03:04:39;;;;;;;15.08;4.58;;;;;;;14.14;86.28;99555.63;126412;1093;28776;-77
2021/08/02 03:07:12;;;;;;;12.55;4.80;;;;;;;14.17;86.48;99551.02;126477;1092;23469;-77
2021/08/02 03:09:43;;;;;;;17.07;5.40;;;;;;;14.21;85.84;99557.11;126412;1093;26270;-77
2021/08/02 03:12:12;;;;;;;12.55;4.40;;;;;;;14.25;86.47;99554.78;126403;1092;26223;-77
2021/08/02 03:14:42;;;;;;;14.30;5.00;;;;;;;14.26;86.44;99559.88;126406;1093;22791;-76
2021/08/02 03:17:10;;;;;;;11.90;4.48;;;;;;;14.30;86.39;99559.62;126390;1091;22763;-76
2021/08/02 03:19:42;;;;;;;15.15;4.85;;;;;;;14.33;86.29;99569.81;126358;1093;22755;-77
2021/08/02 03:22:25;;;;;;;10.55;4.20;;;;;;;14.35;86.42;99572.87;126364;1093;22883;-77
2021/08/02 03:25:04;;;;;;;12.30;4.00;;;;;;;14.38;86.05;99566.22;126435;1093;22948;-77
2021/08/02 03:27:42;;;;;;;13.23;4.73;;;;;;;14.40;86.27;99566.46;126542;1093;24008;-77
2021/08/02 03:30:13;;;;;;;13.60;4.15;;;;;;;14.41;86.09;99577.16;126423;1093;26251;-76
2021/08/02 03:32:45;;;;;;;12.75;4.00;;;;;;;14.44;86.02;99578.17;126390;1093;22764;-77
2021/08/02 03:35:17;;;;;;;11.30;4.00;;;;;;;14.45;86.07;99579.69;126509;1093;22784;-76
2021/08/02 03:37:48;;;;;;;11.15;3.75;;;;;;;14.47;86.54;99586.31;126420;1093;22813;-76
2021/08/02 03:40:18;;;;;;;12.95;4.60;;;;;;;14.48;86.15;99590.63;126389;1093;22899;-77
2021/08/02 03:42:48;;;;;;;12.07;3.60;;;;;;;14.50;86.11;99604.17;126503;1093;22776;-76
2021/08/02 03:45:19;;;;;;;14.75;4.65;;;;;;;14.50;86.38;99604.91;126521;1093;27736;-77
2021/08/02 03:47:48;;;;;;;15.75;4.30;;;;;;;14.52;85.90;99607.22;126396;1093;24171;-77
2021/08/02 03:50:16;;;;;;;13.15;3.45;;;;;;;14.51;86.14;99603.64;126497;1093;22770;-77
2021/08/02 03:52:47;;;;;;;12.05;3.75;;;;;;;14.52;85.89;99612.84;126393;1093;22778;-77
2021/08/02 03:55:18;;;;;;;15.30;4.90;;;;;;;14.53;86.12;99620.73;126359;1093;22743;-77
2021/08/02 03:57:46;;;;;;;10.25;4.20;;;;;;;14.55;85.73;99617.39;126368;1093;22764;-77
2021/08/02 04:00:21;;;;;;;10.65;4.50;;;;;;;14.57;86.23;99620.45;126423;1093;22807;-77
2021/08/02 04:02:50;;;;;;;13.70;4.10;;;;;;;14.56;86.01;99624.55;126318;1093;23700;-77
2021/08/02 04:05:19;;;;;;;13.75;4.15;;;;;;;14.57;85.99;99626.06;126404;1093;25922;-76
2021/08/02 04:07:48;;;;;;;17.40;4.15;;;;;;;14.57;85.91;99626.06;126430;1093;22906;-77
2021/08/02 04:10:17;;;;;;;14.65;4.95;;;;;;;14.57;85.96;99635.27;126415;1093;25846;-77
2021/08/02 04:12:46;;;;;;;;;;;;;;;14.57;86.27;99624.02;126499;1092;22764;-77
2021/08/02 04:15:15;;;;;;;13.35;3.95;;;;;;;14.57;85.84;99642.91;126394;1091;21486;-77
2021/08/02 04:17:45;;;;;;;11.33;4.10;;;;;;;14.57;86.19;99638.07;126562;1093;26932;-77
2021/08/02 04:20:15;;;;;;;10.63;4.20;;;;;;;14.58;85.91;99638.84;126503;1093;22915;-77
2021/08/02 04:22:48;;;;;;;9.70;4.30;;;;;;;14.58;86.42;99647.27;126380;1093;26197;-77
2021/08/02 04:25:16;;;;;;;12.25;4.90;;;;;;;14.61;85.84;99639.84;126564;1093;22828;-77
2021/08/02 04:27:45;;;;;;;19.45;5.05;;;;;;;14.63;85.96;99651.33;126376;1093;22791;-77
2021/08/02 04:30:15;;;;;;;23.10;5.15;;;;;;;14.66;86.04;99653.08;126529;1093;22947;-77
2021/08/02 04:32:47;;;;;;;14.23;4.50;;;;;;;14.68;85.99;99665.33;126584;1093;22791;-77
2021/08/02 04:35:15;;;;;;;14.03;4.20;;;;;;;14.70;86.06;99662.76;126432;1093;22748;-77
2021/08/02 04:37:44;;;;;;;13.40;4.37;;;;;;;14.72;86.45;99668.62;126398;1093;26021;-77
2021/08/02 04:40:14;;;;;;;10.97;3.73;;;;;;;14.76;85.91;99671.14;126437;1093;24167;-77
2021/08/02 04:42:43;;;;;;;13.00;4.50;;;;;;;14.79;86.33;99670.11;126483;1093;22804;-77
2021/08/02 04:45:14;;;;;;;11.30;3.70;;;;;;;14.81;85.90;99681.59;126491;1093;25887;-77
2021/08/02 04:47:42;;;;;;;10.55;3.55;;;;;;;14.84;85.86;99674.91;126507;1092;24455;-77
2021/08/02 04:50:14;;;;;;;17.88;3.85;;;;;;;14.88;86.25;99678.20;126421;1093;23393;-78
2021/08/02 04:52:42;;;;;;;;;;;;;;;14.91;86.13;99688.41;126446;1092;22835;-77
2021/08/02 04:55:13;;;;;;;12.00;4.25;;;;;;;14.94;86.18;99688.13;126407;1093;21460;-77
2021/08/02 04:57:42;;;;;;;14.53;5.87;;;;;;;14.98;85.86;99688.59;126447;1093;22852;-77
2021/08/02 05:00:13;;;;;;;13.25;3.50;;;;;;;15.01;85.72;99696.00;126467;1093;22860;-77
2021/08/02 05:02:42;;;;;;;10.90;4.00;;;;;;;15.05;85.63;99698.52;126485;1093;25814;-77
2021/08/02 05:05:11;;;;;;;8.83;3.60;;;;;;;15.08;85.29;99697.48;126437;1092;22772;-77
2021/08/02 05:07:40;;;;;;;14.68;4.38;;;;;;;15.10;85.65;99698.50;126420;1092;27277;-77
2021/08/02 05:10:11;;;;;;;10.10;3.50;;;;;;;15.13;85.67;99710.72;126433;1092;23453;-78
2021/08/02 05:12:40;;;;;;;10.55;3.95;;;;;;;15.15;85.46;99708.15;126770;1093;22794;-78
2021/08/02 05:15:12;;;;;;;13.95;4.13;;;;;;;15.16;85.57;99710.45;126978;1093;24293;-78
2021/08/02 05:17:40;;;;;;;12.65;3.55;;;;;;;15.18;85.60;99710.70;126472;1092;22996;-79
2021/08/02 05:20:10;;;;;;;9.45;3.75;;;;;;;15.21;85.67;99720.11;126291;1093;22797;-78
2021/08/02 05:22:39;;;;;;;10.43;3.68;;;;;;;15.24;85.63;99707.83;126424;1093;24993;-77
2021/08/02 05:25:09;;;;;;;13.07;3.77;;;;;;;15.24;85.35;99700.16;126426;1092;27352;-77
2021/08/02 05:27:37;;;;;;;10.25;4.20;;;;;;;15.28;85.42;99714.70;126330;1093;22794;-78
2021/08/02 05:30:08;;;;;;;8.15;2.85;;;;;;;15.29;84.88;99713.39;126213;1093;27256;-77
2021/08/02 05:32:36;;;;;;;8.50;2.85;;;;;;;15.32;85.25;99717.22;126397;1092;22877;-77
2021/08/02 05:35:06;;;;;;;10.40;3.60;;;;;;;15.34;85.21;99715.41;126406;1093;24177;-77
2021/08/02 05:37:35;;;;;;;11.83;3.58;;;;;;;15.38;84.85;99720.74;127037;1093;22738;-77
2021/08/02 05:40:04;;;;;;;8.37;3.27;;;;;;;15.41;85.06;99725.33;126458;1093;25967;-77
2021/08/02 05:42:32;;;;;;;9.63;2.63;;;;;;;15.44;84.82;99723.53;126570;1093;22756;-78
2021/08/02 05:45:01;;;;;;;9.85;2.85;;;;;;;15.46;84.42;99729.42;126483;1093;22841;-78
2021/08/02 05:47:40;;;;;;;10.87;3.43;;;;;;;15.48;84.91;99727.58;126327;1092;22748;-77
2021/08/02 05:50:11;;;;;;;8.88;3.05;;;;;;;15.51;84.66;99728.59;126630;1092;27183;-77
2021/08/02 05:52:44;;;;;;;13.55;3.75;;;;;;;15.53;84.73;99726.02;126533;1092;26309;-78
2021/08/02 05:55:13;;;;;;;9.30;3.05;;;;;;;15.55;84.45;99732.64;126443;1093;25855;-78
2021/08/02 05:57:41;;;;;;;10.93;3.30;;;;;;;15.57;84.51;99740.55;126535;1093;22811;-78
2021/08/02 06:00:13;;;;;;;11.10;4.45;;;;;;;15.59;84.73;99735.93;126432;1092;22933;-78
2021/08/02 06:02:43;;;;;;;9.80;3.70;;;;;;;15.62;84.59;99740.48;126425;1093;22785;-78
2021/08/02 06:05:11;;;;;;;10.20;3.28;;;;;;;15.66;84.32;99738.17;126541;1092;23006;-77
2021/08/02 06:07:42;;;;;;;9.65;3.20;;;;;;;15.71;84.54;99742.20;126457;1093;23356;-77
2021/08/02 06:10:12;;;;;;;9.05;2.50;;;;;;;15.75;84.61;99737.81;126521;1093;22771;-78
2021/08/02 06:12:41;;;;;;;8.30;3.05;;;;;;;15.80;84.00;99745.45;126759;1093;22832;-77
2021/08/02 06:15:15;;;;;;;11.85;3.80;;;;;;;15.87;84.55;99738.48;126577;1092;22931;-78
2021/08/02 06:17:44;;;;;;;9.10;2.70;;;;;;;15.94;84.00;99746.32;126459;1093;22908;-78
2021/08/02 06:20:14;;;;;;;7.50;2.30;;;;;;;16.01;83.81;99740.12;126463;1093;22901;-78
2021/08/02 06:22:42;;;;;;;6.98;2.30;;;;;;;16.08;83.34;99750.77;126530;1093;22828;-79
2021/08/02 06:25:14;;;;;;;10.70;3.70;;;;;;;16.15;83.41;99755.83;126425;1093;27230;-77
2021/08/02 06:27:43;;;;;;;10.87;3.17;;;;;;;16.19;83.05;99745.80;126433;1092;23498;-78
2021/08/02 06:30:13;;;;;;;9.00;2.70;;;;;;;16.25;83.19;99756.22;126522;1093;25947;-78
2021/08/02 06:32:41;;;;;;;9.40;2.85;;;;;;;16.30;82.98;99758.22;126487;1093;23020;-78
2021/08/02 06:35:11;;;;;;;10.10;2.00;;;;;;;16.31;82.78;99759.73;126521;1093;23717;-78
2021/08/02 06:37:40;;;;;;;;;;;;;;;16.32;82.48;99761.27;126641;1093;25868;-78
2021/08/02 06:40:12;;;;;;;6.55;2.35;;;;;;;16.31;82.52;99760.49;126584;1093;21467;-78
2021/08/02 06:42:41;;;;;;;9.15;1.95;;;;;;;16.34;82.66;99761.50;126525;1092;22751;-78
2021/08/02 06:45:11;;;;;;;7.45;2.45;;;;;;;16.35;82.51;99760.95;126478;1093;27300;-78
2021/08/02 06:47:40;;;;;;;8.50;3.18;;;;;;;16.38;82.65;99773.22;126561;1093;22753;-79
2021/08/02 06:50:11;;;;;;;7.00;1.80;;;;;;;16.39;82.27;99767.05;126454;1093;26229;-78
2021/08/02 06:52:40;;;;;;;6.80;2.20;;;;;;;16.39;82.50;99767.05;126531;1093;27218;-78
2021/08/02 06:55:10;;;;;;;7.30;2.20;;;;;;;16.39;82.41;99767.05;126472;1093;27348;-78
2021/08/02 06:57:41;;;;;;;7.93;2.60;;;;;;;16.42;81.96;99768.82;126434;1093;22781;-79
2021/08/02 07:00:11;;;;;;;8.25;3.30;;;;;;;16.45;82.05;99773.38;126492;1093;22750;-79
2021/08/02 07:02:43;;;;;;;7.80;2.45;;;;;;;16.48;81.86;99771.56;126506;1093;24434;-77
2021/08/02 07:05:12;;;;;;;5.47;2.30;;;;;;;16.50;81.59;99775.41;126420;1093;22779;-79
2021/08/02 07:07:42;;;;;;;9.55;2.40;;;;;;;16.54;81.95;99778.69;126463;1093;24953;-79
2021/08/02 07:10:15;;;;;;;8.55;2.50;;;;;;;16.60;81.69;99778.61;126494;1093;22748;-77
2021/08/02 07:12:43;;;;;;;7.50;2.50;;;;;;;16.66;81.92;99785.70;126620;1092;22768;-78
2021/08/02 07:15:13;;;;;;;8.70;2.20;;;;;;;16.74;81.35;99780.98;126454;1093;22748;-77
2021/08/02 07:17:42;;;;;;;6.23;2.03;;;;;;;16.83;82.12;99785.48;126609;1093;22792;-78
2021/08/02 07:20:13;;;;;;;6.05;2.45;;;;;;;16.98;81.68;99789.38;126498;1093;26904;-78
2021/08/02 07:22:44;;;;;;;8.27;2.50;;;;;;;17.13;81.44;99782.50;126811;1093;26308;-78
2021/08/02 07:25:15;;;;;;;7.80;2.30;;;;;;;17.25;81.05;99793.09;126505;1093;22908;-78
2021/08/02 07:27:44;;;;;;;9.40;2.75;;;;;;;17.31;80.77;99799.41;126501;1093;22924;-77
2021/08/02 07:30:15;;;;;;;8.23;2.30;;;;;;;17.33;79.30;99793.22;126461;1093;22787;-78
2021/08/02 07:32:49;;;;;;;9.40;2.25;;;;;;;17.35;79.47;99799.09;126717;1093;22790;-78
2021/08/02 07:35:21;;;;;;;6.60;1.90;;;;;;;17.38;79.94;99789.56;126483;1093;22792;-78
2021/08/02 07:37:56;;;;;;;7.57;2.10;;;;;;;17.40;79.26;99793.34;126456;1092;22792;-78
2021/08/02 07:40:26;;;;;;;6.90;2.00;;;;;;;17.40;79.74;99790.52;126532;1093;24436;-78
2021/08/02 07:43:01;;;;;;;8.63;3.13;;;;;;;17.44;79.42;99801.52;126618;1091;22851;-78
2021/08/02 07:45:30;;;;;;;7.60;2.60;;;;;;;17.53;79.25;99799.08;126518;1093;22832;-78
2021/08/02 07:47:58;;;;;;;9.47;2.67;;;;;;;17.62;79.06;99800.73;126410;1093;22869;-79
2021/08/02 07:50:27;;;;;;;5.63;2.20;;;;;;;17.63;78.76;99807.89;126630;1093;22796;-78
2021/08/02 07:52:56;;;;;;;9.00;2.40;;;;;;;17.65;78.40;99808.88;126501;1093;22795;-78
2021/08/02 07:55:25;;;;;;;7.77;2.77;;;;;;;17.69;78.55;99812.14;126437;1092;22751;-79
2021/08/02 07:57:53;;;;;;;;;;;;;;;17.72;78.19;99810.31;126512;1093;27367;-78
2021/08/02 08:00:22;;;;;;;8.45;3.10;;;;;;;17.77;77.67;99818.68;126391;1093;21918;-78
2021/08/02 08:02:50;;;;;;;7.33;3.07;;;;;;;17.80;78.32;99814.02;126411;1093;22858;-77
2021/08/02 08:05:19;;;;;;;12.53;3.28;;;;;;;17.90;78.10;99820.04;126415;1093;23541;-77
2021/08/02 08:07:50;;;;;;;8.83;3.33;;;;;;;17.97;77.64;99822.97;126438;1093;22914;-79
2021/08/02 08:10:22;;;;;;;8.63;2.60;;;;;;;18.02;77.40;99830.58;126521;1092;22808;-78
2021/08/02 08:12:51;;;;;;;6.63;2.40;;;;;;;18.12;77.70;99825.28;126532;1093;22922;-77
2021/08/02 08:15:22;;;;;;;8.85;3.05;;;;;;;18.24;75.99;99821.71;126400;1093;26268;-78
2021/08/02 08:17:53;;;;;;;6.53;2.30;;;;;;;18.31;76.62;99826.70;126515;1093;22735;-77
2021/08/02 08:20:22;;;;;;;;;;;;;;;18.43;76.79;99828.06;126624;1093;22725;-77
2021/08/02 08:22:52;;;;;;;7.30;2.00;;;;;;;18.55;76.23;99826.53;126517;1093;21463;-77
2021/08/02 08:25:20;;;;;;;;;;;;;;;18.67;76.08;99829.12;126443;1093;25851;-78
2021/08/02 08:27:50;;;;;;;9.20;2.10;;;;;;;18.74;75.06;99828.47;126532;1092;21461;-78
2021/08/02 08:30:20;;;;;;;4.70;1.47;;;;;;;18.74;73.10;99829.23;126589;1092;24098;-78
2021/08/02 08:32:50;;;;;;;4.00;1.48;;;;;;;18.74;73.78;99825.64;126518;1093;22767;-78
2021/08/02 08:35:20;;;;;;;2.93;1.20;;;;;;;18.76;73.51;99828.69;126504;1092;22754;-78
2021/08/02 08:37:50;;;;;;;3.98;1.20;;;;;;;18.78;72.69;99835.32;126643;1093;22769;-77
2021/08/02 08:40:19;;;;;;;3.53;1.20;;;;;;;18.78;72.72;99837.38;126459;1093;22745;-78
2021/08/02 08:42:50;;;;;;;3.63;1.10;;;;;;;18.78;73.31;99840.20;126535;1093;26271;-78
2021/08/02 08:45:20;;;;;;;3.25;1.15;;;;;;;18.85;73.38;99836.73;126483;1093;23564;-78
2021/08/02 08:47:51;;;;;;;3.75;1.33;;;;;;;18.91;71.65;99838.11;126450;1093;22762;-77
2021/08/02 08:50:28;;;;;;;5.63;1.10;;;;;;;18.97;72.28;99835.95;126475;1093;22932;-78
2021/08/02 08:52:57;;;;;;;4.68;1.10;;;;;;;19.11;72.04;99845.16;126440;1093;22751;-79
2021/08/02 08:55:26;;;;;;;4.88;1.40;;;;;;;19.21;71.50;99843.39;126436;1093;22975;-78
2021/08/02 08:57:55;;;;;;;3.63;1.15;;;;;;;19.20;71.50;99856.03;126335;1093;27429;-78
2021/08/02 09:00:25;;;;;;;4.20;1.15;;;;;;;19.16;70.61;99855.61;126348;1093;22748;-78
2021/08/02 09:02:55;;;;;;;3.83;1.10;;;;;;;19.09;70.05;99856.27;126464;1091;22915;-78
2021/08/02 09:05:31;;;;;;;;;;;;;;;19.01;70.44;99858.24;126517;1093;22908;-78
2021/08/02 09:08:01;;;;;;;4.65;1.00;;;;;;;18.94;70.46;99848.34;126422;1093;21458;-78
2021/08/02 09:10:31;;;;;;;5.40;1.20;;;;;;;18.96;70.44;99859.11;126443;1092;26936;-78
2021/08/02 09:13:01;;;;;;;5.10;1.10;;;;;;;18.96;70.69;99859.88;126641;1093;22812;-77
2021/08/02 09:15:39;;;;;;;3.83;1.10;;;;;;;18.98;70.39;99862.15;126594;1092;25858;-78
2021/08/02 09:18:09;;;;;;;4.40;1.30;;;;;;;19.03;70.70;99858.45;126497;1093;22884;-77
2021/08/02 09:20:39;;;;;;;5.03;1.20;;;;;;;19.10;70.67;99857.77;126393;1093;22727;-78
2021/08/02 09:23:11;;;;;;;4.08;1.40;;;;;;;19.17;70.66;99862.77;126482;1093;22778;-78
2021/08/02 09:25:51;;;;;;;4.15;1.28;;;;;;;19.21;70.39;99866.80;126521;1093;24420;-77
2021/08/02 09:28:21;;;;;;;7.05;1.68;;;;;;;19.27;70.50;99855.34;126528;1092;27294;-78
2021/08/02 09:30:58;;;;;;;8.50;1.70;;;;;;;19.35;70.62;99862.64;126593;1093;22933;-77
2021/08/02 09:33:27;;;;;;;4.28;1.58;;;;;;;19.42;69.72;99855.55;126660;1093;24598;-78
2021/08/02 09:36:01;;;;;;;5.03;1.50;;;;;;;19.44;69.71;99861.42;126600;1093;22848;-78
2021/08/02 09:38:30;;;;;;;4.28;1.28;;;;;;;19.44;69.46;99854.99;126635;1093;22787;-77
2021/08/02 09:40:59;;;;;;;5.08;1.58;;;;;;;19.46;69.70;99861.63;126559;1092;22909;-78
2021/08/02 09:43:30;;;;;;;4.15;1.63;;;;;;;19.48;69.47;99861.07;126461;1092;22836;-78
2021/08/02 09:46:02;;;;;;;8.15;1.73;;;;;;;19.50;68.88;99861.28;126531;1093;22759;-77
2021/08/02 09:48:38;;;;;;;5.68;1.50;;;;;;;19.51;68.91;99869.25;126565;1093;22770;-77
2021/08/02 09:51:12;;;;;;;6.00;1.63;;;;;;;19.55;68.25;99864.00;126551;1093;22844;-78
2021/08/02 09:53:43;;;;;;;5.03;1.58;;;;;;;19.58;67.96;99856.45;126540;1093;26105;-78
2021/08/02 09:56:13;;;;;;;5.10;1.75;;;;;;;19.61;68.36;99856.14;126578;1092;22770;-78
2021/08/02 09:58:44;;;;;;;7.35;1.93;;;;;;;19.67;68.03;99859.59;126504;1092;27549;-78
2021/08/02 10:01:15;;;;;;;7.43;2.00;;;;;;;19.71;67.83;99853.58;126574;1093;22778;-78
2021/08/02 10:03:45;;;;;;;5.95;1.80;;;;;;;19.74;68.17;99866.65;126552;1093;22753;-78
2021/08/02 10:06:16;;;;;;;8.75;1.65;;;;;;;19.85;68.41;99855.80;126643;1093;22805;-78
2021/08/02 10:08:45;;;;;;;4.15;1.43;;;;;;;19.95;67.89;99853.99;126543;1093;27240;-78
2021/08/02 10:11:13;;;;;;;5.60;1.57;;;;;;;20.05;67.12;99849.35;126505;1093;25823;-77
2021/08/02 10:13:44;;;;;;;5.80;1.55;;;;;;;20.09;65.70;99851.86;126498;1093;22770;-78
2021/08/02 10:16:15;;;;;;;3.57;1.40;;;;;;;20.05;65.96;99851.42;126505;1093;24455;-78
2021/08/02 10:18:49;;;;;;;4.70;1.50;;;;;;;19.99;66.31;99847.97;126483;1092;26239;-78
2021/08/02 10:21:19;;;;;;;7.05;1.55;;;;;;;19.78;66.05;99844.41;126713;1092;26213;-78
2021/08/02 10:23:49;;;;;;;6.20;1.73;;;;;;;19.78;66.48;99850.81;126497;1093;22769;-78
2021/08/02 10:26:28;;;;;;;5.35;1.40;;;;;;;19.86;66.45;99860.13;126475;1093;22771;-78
2021/08/02 10:29:02;;;;;;;6.93;1.85;;;;;;;19.92;66.41;99857.95;126420;1093;22768;-77
2021/08/02 10:31:44;;;;;;;8.03;1.80;;;;;;;19.91;66.24;99856.41;126619;1093;27705;-78
2021/08/02 10:34:17;;;;;;;5.45;1.70;;;;;;;19.96;66.09;99861.19;126576;1093;22829;-78
2021/08/02 10:36:59;;;;;;;6.13;1.80;;;;;;;20.07;65.84;99852.39;126406;1092;22966;-78
2021/08/02 10:39:29;;;;;;;4.85;1.60;;;;;;;20.21;65.28;99863.68;126606;1093;22806;-78
2021/08/02 10:42:10;;;;;;;5.53;1.85;;;;;;;20.23;63.49;99858.98;126646;1093;22909;-78
2021/08/02 10:44:39;;;;;;;8.13;1.70;;;;;;;20.25;64.80;99858.42;126547;1092;22751;-78
2021/08/02 10:47:09;;;;;;;7.47;2.00;;;;;;;20.42;64.92;99859.48;126494;1093;22774;-78
2021/08/02 10:49:49;;;;;;;6.33;1.88;;;;;;;20.56;64.57;99851.64;126448;1093;22758;-78
2021/08/02 10:52:27;;;;;;;4.93;1.53;;;;;;;20.59;63.57;99842.00;126541;1093;22904;-78
2021/08/02 10:54:58;;;;;;;4.60;1.40;;;;;;;20.56;63.61;99855.25;126542;1093;22859;-78
2021/08/02 10:57:27;;;;;;;4.97;1.30;;;;;;;20.61;63.28;99847.91;126549;1093;26372;-77
2021/08/02 10:59:56;;;;;;;5.57;1.20;;;;;;;20.69;63.40;99840.20;126498;1093;23411;-77
2021/08/02 11:02:24;;;;;;;4.38;1.40;;;;;;;20.82;63.67;99848.57;126464;1093;23650;-77
2021/08/02 11:04:54;;;;;;;6.08;1.50;;;;;;;20.93;62.89;99848.25;126451;1093;22913;-78
2021/08/02 11:07:23;;;;;;;5.13;1.50;;;;;;;20.92;62.25;99846.72;126651;1092;24878;-77
2021/08/02 11:09:52;;;;;;;3.80;1.35;;;;;;;20.86;61.52;99851.80;126449;1092;22832;-77
2021/08/02 11:12:21;;;;;;;5.13;1.50;;;;;;;20.73;62.52;99849.11;126523;1093;22751;-77
2021/08/02 11:14:51;;;;;;;5.40;1.48;;;;;;;20.62;61.52;99849.41;126489;1092;22750;-77
2021/08/02 11:17:21;;;;;;;7.00;1.60;;;;;;;20.52;62.25;99843.50;126594;1093;22769;-78
2021/08/02 11:20:00;;;;;;;8.80;1.70;;;;;;;20.51;62.73;99841.97;126352;1093;26229;-78
2021/08/02 11:22:28;;;;;;;7.30;1.40;;;;;;;20.50;62.40;99846.14;126528;1092;22739;-78
2021/08/02 11:25:01;;;;;;;4.40;1.30;;;;;;;20.50;62.54;99846.14;126487;1093;23421;-78
2021/08/02 11:27:30;;;;;;;3.83;1.27;;;;;;;20.50;62.89;99839.70;126642;1093;22810;-78
2021/08/02 11:29:59;;;;;;;4.65;1.50;;;;;;;20.53;62.28;99844.23;126480;1093;25887;-78
2021/08/02 11:32:29;;;;;;;3.93;1.18;;;;;;;20.64;62.21;99836.20;126480;1092;22832;-77
2021/08/02 11:34:59;;;;;;;4.58;1.35;;;;;;;20.81;62.27;99835.72;126575;1093;23371;-77
2021/08/02 11:37:29;;;;;;;6.03;1.43;;;;;;;21.02;61.43;99844.14;126656;1093;22757;-78
2021/08/02 11:39:57;;;;;;;;;;;;;;;21.09;60.30;99843.42;126600;1092;26356;-78
2021/08/02 11:42:28;;;;;;;6.03;1.20;;;;;;;21.07;60.13;99846.06;126512;1093;25663;-77